Time;durP1;ratioP1;P1;durP2;ratioP2;P2;SDS_P1;SDS_P2;PMS_P1;PMS_P2;Temp;Humidity;BMP_temperature;BMP_pressure;BME280_temperature;BME280_humidity;BME280_pressure;Samples;Min_cycle;Max_cycle;Signal;HPM_P1;HPM_P2
2023/10/16 00:02:11;;;;;;;2.70;2.00;;;4.50;99.90;;;;;;5002496;28;20387;-62
2023/10/16 00:04:43;;;;;;;2.70;1.80;;;4.60;99.90;;;;;;5004822;28;20713;-62
2023/10/16 00:07:11;;;;;;;3.33;1.87;;;4.60;99.90;;;;;;5002907;28;20684;-63
2023/10/16 00:09:40;;;;;;;3.47;2.10;;;4.60;99.90;;;;;;5000949;28;20214;-63
2023/10/16 00:12:07;;;;;;;3.30;1.90;;;4.70;99.90;;;;;;5001924;28;20322;-62
2023/10/16 00:14:35;;;;;;;5.73;2.20;;;4.70;99.90;;;;;;5004251;28;20249;-63
2023/10/16 00:17:03;;;;;;;3.03;2.00;;;4.70;99.90;;;;;;5004055;28;20305;-63
2023/10/16 00:19:33;;;;;;;2.43;1.57;;;4.70;99.90;;;;;;5000700;28;20227;-63
2023/10/16 00:22:00;;;;;;;2.27;1.70;;;4.70;99.90;;;;;;5000619;28;20253;-62
2023/10/16 00:24:28;;;;;;;4.40;1.80;;;4.70;99.90;;;;;;4993012;28;20231;-64
2023/10/16 00:27:00;;;;;;;3.23;2.27;;;4.80;99.90;;;;;;5000953;28;20670;-62
2023/10/16 00:29:35;;;;;;;3.90;1.97;;;4.80;99.90;;;;;;4993135;28;20218;-62
2023/10/16 00:32:07;;;;;;;3.40;2.40;;;4.70;99.90;;;;;;5000988;28;20281;-63
2023/10/16 00:34:34;;;;;;;2.97;1.80;;;4.70;99.90;;;;;;5003945;28;20263;-62
2023/10/16 00:37:04;;;;;;;1.90;1.63;;;4.70;99.90;;;;;;5004222;28;20254;-62
2023/10/16 00:39:32;;;;;;;3.10;2.10;;;4.60;99.90;;;;;;5000880;28;20250;-62
2023/10/16 00:42:00;;;;;;;3.97;2.23;;;4.60;99.90;;;;;;5001441;28;20228;-62
2023/10/16 00:44:33;;;;;;;3.53;1.77;;;4.50;99.90;;;;;;4993463;28;20235;-63
2023/10/16 00:47:03;;;;;;;2.87;1.97;;;4.50;99.90;;;;;;5001108;28;20211;-62
2023/10/16 00:49:30;;;;;;;4.50;2.30;;;4.50;99.90;;;;;;4993735;28;20294;-62
2023/10/16 00:51:57;;;;;;;3.57;2.27;;;4.40;99.90;;;;;;5001037;28;20890;-62
2023/10/16 00:54:28;;;;;;;3.47;2.47;;;4.30;99.90;;;;;;5004334;28;20203;-62
2023/10/16 00:56:57;;;;;;;5.50;2.20;;;4.30;99.90;;;;;;5004387;28;20210;-62
2023/10/16 00:59:25;;;;;;;4.97;1.90;;;4.30;99.90;;;;;;5000830;28;20305;-63
2023/10/16 01:02:04;;;;;;;6.53;2.10;;;4.30;99.90;;;;;;5000676;28;20234;-62
2023/10/16 01:04:31;;;;;;;3.77;2.00;;;4.30;99.90;;;;;;5000653;28;20287;-63
2023/10/16 01:07:00;;;;;;;2.43;1.73;;;4.30;99.90;;;;;;5000837;28;20215;-63
2023/10/16 01:09:33;;;;;;;3.17;1.90;;;4.30;99.90;;;;;;4992819;28;20211;-63
2023/10/16 01:12:06;;;;;;;3.40;2.13;;;4.30;99.90;;;;;;5008661;28;20230;-62
2023/10/16 01:14:35;;;;;;;3.77;1.80;;;4.30;99.90;;;;;;4993978;28;20207;-62
2023/10/16 01:17:02;;;;;;;3.77;1.97;;;4.30;99.90;;;;;;5000818;28;20207;-63
2023/10/16 01:19:29;;;;;;;2.07;1.87;;;4.30;99.90;;;;;;5003745;28;20544;-63
2023/10/16 01:21:58;;;;;;;3.10;2.03;;;4.20;99.90;;;;;;5004103;28;20262;-63
2023/10/16 01:24:27;;;;;;;4.17;2.00;;;4.20;99.90;;;;;;5000906;28;20226;-62
2023/10/16 01:27:00;;;;;;;2.97;2.13;;;4.20;99.90;;;;;;5000512;28;20701;-62
2023/10/16 01:29:27;;;;;;;2.90;2.30;;;4.10;99.90;;;;;;4992568;28;20245;-62
2023/10/16 01:31:54;;;;;;;4.83;2.87;;;4.10;99.90;;;;;;5000574;28;20717;-62
2023/10/16 01:34:22;;;;;;;3.33;2.10;;;4.10;99.90;;;;;;5003202;28;20579;-62
2023/10/16 01:36:51;;;;;;;3.90;2.10;;;4.10;99.90;;;;;;5004292;28;20214;-62
2023/10/16 01:39:49;;;;;;;2.97;2.10;;;4.00;99.90;;;;;;5001495;28;20569;-62
2023/10/16 01:42:18;;;;;;;2.07;1.80;;;3.90;99.90;;;;;;5002286;28;20232;-63
2023/10/16 01:44:45;;;;;;;4.23;2.03;;;3.90;99.90;;;;;;5004054;28;20219;-62
2023/10/16 01:47:15;;;;;;;2.87;2.03;;;3.90;99.90;;;;;;5002910;28;20763;-62
2023/10/16 01:49:42;;;;;;;4.23;1.97;;;3.90;99.90;;;;;;5000153;28;20218;-61
2023/10/16 01:52:11;;;;;;;2.93;2.00;;;3.90;99.90;;;;;;5001369;28;20227;-62
2023/10/16 01:54:39;;;;;;;2.20;1.67;;;3.80;99.90;;;;;;5004112;28;20585;-62
2023/10/16 01:57:10;;;;;;;3.27;2.10;;;3.80;99.90;;;;;;5003195;28;20241;-62
2023/10/16 01:59:39;;;;;;;4.00;2.07;;;3.80;99.90;;;;;;5000044;28;20718;-62
2023/10/16 02:02:09;;;;;;;4.57;1.90;;;3.80;99.90;;;;;;5000775;28;20223;-62
2023/10/16 02:04:36;;;;;;;3.30;1.70;;;3.70;99.90;;;;;;5003877;28;20229;-62
2023/10/16 02:07:03;;;;;;;4.37;1.90;;;3.70;99.90;;;;;;4995926;28;20302;-62
2023/10/16 02:09:31;;;;;;;2.33;1.93;;;3.70;99.90;;;;;;5003399;28;20238;-62
2023/10/16 02:11:59;;;;;;;2.47;2.27;;;3.80;99.90;;;;;;5003720;28;20739;-61
2023/10/16 02:14:27;;;;;;;3.17;2.03;;;3.70;99.90;;;;;;5000910;28;20258;-62
2023/10/16 02:16:57;;;;;;;3.00;1.87;;;3.80;99.90;;;;;;5000439;28;20701;-62
2023/10/16 02:19:25;;;;;;;3.90;1.80;;;3.70;99.90;;;;;;5003243;28;20206;-62
2023/10/16 02:21:53;;;;;;;2.77;1.97;;;3.60;99.90;;;;;;5003588;28;20235;-62
2023/10/16 02:24:20;;;;;;;3.00;2.00;;;3.60;99.90;;;;;;5001944;28;20615;-62
2023/10/16 02:26:55;;;;;;;3.07;2.03;;;3.60;99.90;;;;;;5000383;28;20211;-63
2023/10/16 02:29:23;;;;;;;2.50;2.00;;;3.50;99.90;;;;;;5002829;28;20207;-62
2023/10/16 02:31:51;;;;;;;4.30;2.33;;;3.50;99.90;;;;;;5004157;28;20230;-62
2023/10/16 02:34:22;;;;;;;4.67;2.17;;;3.40;99.90;;;;;;5002430;28;20273;-62
2023/10/16 02:36:51;;;;;;;5.07;2.40;;;3.40;99.90;;;;;;5000908;28;20212;-62
2023/10/16 02:39:35;;;;;;;3.40;2.30;;;3.40;99.90;;;;;;5002623;28;20587;-63
2023/10/16 02:42:05;;;;;;;3.67;2.17;;;3.30;99.90;;;;;;5005344;28;20239;-62
2023/10/16 02:44:33;;;;;;;3.47;2.07;;;3.30;99.90;;;;;;4996881;28;20669;-62
2023/10/16 02:47:05;;;;;;;2.93;1.80;;;3.30;99.90;;;;;;5004131;28;20212;-63
2023/10/16 02:49:33;;;;;;;2.50;1.87;;;3.30;99.90;;;;;;4996293;28;20212;-63
2023/10/16 02:52:00;;;;;;;2.67;1.87;;;3.30;99.90;;;;;;5003868;28;20735;-62
2023/10/16 02:54:27;;;;;;;2.43;1.90;;;3.30;99.90;;;;;;5007588;28;20657;-62
2023/10/16 02:56:59;;;;;;;2.73;1.80;;;3.30;99.90;;;;;;5007036;28;20699;-62
2023/10/16 02:59:26;;;;;;;3.57;2.00;;;3.30;99.90;;;;;;5007403;28;20677;-62
2023/10/16 03:01:54;;;;;;;3.27;2.00;;;3.30;99.90;;;;;;5007407;28;20254;-62
2023/10/16 03:04:23;;;;;;;3.80;2.00;;;3.30;99.90;;;;;;5005022;28;20238;-62
2023/10/16 03:06:53;;;;;;;3.07;2.13;;;3.30;99.90;;;;;;5003667;28;20586;-62
2023/10/16 03:09:27;;;;;;;3.77;2.17;;;3.30;99.90;;;;;;5006226;28;20708;-62
2023/10/16 03:12:04;;;;;;;6.00;3.70;;;3.30;99.90;;;;;;5008129;28;20240;-61
2023/10/16 03:14:36;;;;;;;4.03;1.90;;;3.20;99.90;;;;;;4995959;28;20221;-62
2023/10/16 03:17:09;;;;;;;3.43;2.03;;;3.20;99.90;;;;;;5003468;28;20212;-62
2023/10/16 03:19:35;;;;;;;3.97;2.00;;;3.20;99.90;;;;;;4995894;28;20666;-63
2023/10/16 03:22:11;;;;;;;3.37;1.80;;;3.10;99.90;;;;;;5003767;28;20235;-62
2023/10/16 03:24:38;;;;;;;2.83;1.90;;;3.10;99.90;;;;;;4997020;28;20709;-62
2023/10/16 03:27:08;;;;;;;2.67;1.87;;;3.20;99.90;;;;;;5003512;28;20208;-62
2023/10/16 03:29:35;;;;;;;3.80;2.10;;;3.20;99.90;;;;;;5006258;28;20571;-62
2023/10/16 03:32:03;;;;;;;3.00;2.13;;;3.10;99.90;;;;;;5007008;28;20227;-62
2023/10/16 03:34:31;;;;;;;2.10;1.70;;;3.10;99.90;;;;;;5003083;28;20211;-63
2023/10/16 03:37:03;;;;;;;5.70;2.33;;;3.10;99.90;;;;;;5002937;28;20208;-63
2023/10/16 03:39:32;;;;;;;2.57;1.70;;;3.10;99.90;;;;;;5005975;28;20298;-63
2023/10/16 03:41:59;;;;;;;5.00;2.17;;;3.10;99.90;;;;;;5006361;28;20265;-62
2023/10/16 03:44:27;;;;;;;4.07;2.00;;;3.10;99.90;;;;;;5003489;28;20232;-63
2023/10/16 03:46:55;;;;;;;5.03;1.90;;;3.10;99.90;;;;;;5002551;28;20208;-62
2023/10/16 03:49:22;;;;;;;3.17;2.20;;;3.00;99.90;;;;;;5005042;28;20234;-64
2023/10/16 03:51:50;;;;;;;4.87;2.03;;;3.00;99.90;;;;;;5006407;28;20231;-62
2023/10/16 03:54:30;;;;;;;2.87;1.87;;;3.10;99.90;;;;;;5004893;28;20727;-62
2023/10/16 03:57:00;;;;;;;4.13;2.03;;;3.00;99.90;;;;;;5003032;28;20942;-62
2023/10/16 03:59:29;;;;;;;4.37;2.40;;;2.90;99.90;;;;;;5005468;28;20211;-62
2023/10/16 04:01:56;;;;;;;5.63;2.80;;;2.90;99.90;;;;;;5005962;28;20317;-62
2023/10/16 04:04:25;;;;;;;4.00;2.97;;;2.90;99.90;;;;;;5003458;28;20203;-62
2023/10/16 04:06:56;;;;;;;3.93;3.07;;;2.90;99.90;;;;;;5002240;28;20326;-62
2023/10/16 04:09:29;;;;;;;4.60;3.20;;;2.90;99.90;;;;;;5004669;28;20709;-62
2023/10/16 04:11:57;;;;;;;3.50;2.63;;;3.00;99.90;;;;;;5006176;28;20226;-63
2023/10/16 04:14:44;;;;;;;3.70;2.30;;;2.90;99.90;;;;;;5003499;28;20207;-62
2023/10/16 04:17:11;;;;;;;2.60;2.10;;;2.90;99.90;;;;;;5002941;28;20625;-62
2023/10/16 04:19:52;;;;;;;3.77;2.30;;;3.00;99.90;;;;;;5005840;28;20227;-62
2023/10/16 04:22:23;;;;;;;4.63;2.40;;;3.00;99.90;;;;;;5003471;28;20227;-62
2023/10/16 04:24:54;;;;;;;4.17;2.47;;;3.00;99.90;;;;;;5002364;28;20386;-63
2023/10/16 04:27:33;;;;;;;3.93;2.50;;;3.00;99.90;;;;;;5004657;28;20208;-62
2023/10/16 04:32:56;;;;;;;5.40;2.40;;;3.00;99.90;;;;;;4996555;28;20234;-62
2023/10/16 04:35:51;;;;;;;3.93;2.57;;;3.00;99.90;;;;;;5003878;28;20273;-64
2023/10/16 04:44:21;;;;;;;2.67;2.30;;;3.00;99.90;;;;;;4994781;28;20337;-63
2023/10/16 04:49:17;;;;;;;5.90;3.27;;;3.00;99.90;;;;;;5016232;28;20254;-63
2023/10/16 04:51:52;;;;;;;5.30;3.07;;;3.00;99.90;;;;;;5016113;28;20255;-63
2023/10/16 04:54:43;;;;;;;4.50;3.00;;;3.00;99.90;;;;;;5022619;28;20203;-63
2023/10/16 05:02:52;;;;;;;3.03;2.20;;;3.00;99.90;;;;;;4997492;28;20293;-63
2023/10/16 05:05:45;;;;;;;4.13;2.63;;;3.00;99.90;;;;;;5004239;28;20265;-63
2023/10/16 05:11:23;;;;;;;2.37;2.07;;;3.00;99.90;;;;;;5001450;28;20697;-63
2023/10/16 05:13:55;;;;;;;3.10;2.30;;;3.00;99.90;;;;;;4994447;28;20223;-62
2023/10/16 05:16:31;;;;;;;7.87;4.47;;;3.00;99.90;;;;;;5003080;28;20572;-63
2023/10/16 05:19:16;;;;;;;6.57;3.60;;;3.00;99.90;;;;;;5006267;28;20762;-64
2023/10/16 05:22:03;;;;;;;4.00;2.57;;;3.10;99.90;;;;;;4994165;28;20228;-63
2023/10/16 06:14:11;;;;;;;18.00;12.53;;;3.80;99.90;;;;;;5001500;28;20246;-63
2023/10/16 06:16:39;;;;;;;8.90;5.97;;;3.90;99.90;;;;;;4996127;28;20210;-62
2023/10/16 06:19:07;;;;;;;7.67;4.77;;;4.00;99.90;;;;;;5004829;28;20227;-62
2023/10/16 06:21:36;;;;;;;9.20;5.87;;;4.10;99.90;;;;;;5007373;28;20230;-62
2023/10/16 06:24:17;;;;;;;8.87;4.13;;;4.20;99.90;;;;;;5007701;28;20578;-63
2023/10/16 06:26:46;;;;;;;7.43;3.70;;;4.30;99.90;;;;;;4996900;28;20219;-62
2023/10/16 06:29:13;;;;;;;6.47;3.83;;;4.50;99.90;;;;;;5003959;28;20673;-62
2023/10/16 06:31:49;;;;;;;6.60;3.40;;;5.00;99.90;;;;;;5006446;28;20322;-62
2023/10/16 06:34:16;;;;;;;5.60;3.43;;;5.80;99.90;;;;;;5005479;28;20234;-62
2023/10/16 06:36:44;;;;;;;6.20;3.03;;;6.70;99.90;;;;;;5002828;28;20230;-63
2023/10/16 06:39:22;;;;;;;7.67;3.43;;;7.50;99.90;;;;;;5002240;28;20278;-62
2023/10/16 06:41:53;;;;;;;9.47;3.97;;;7.80;99.90;;;;;;5005907;28;20229;-62
2023/10/16 06:44:21;;;;;;;5.63;3.13;;;8.00;99.90;;;;;;5004670;28;20203;-63
2023/10/16 06:46:49;;;;;;;5.53;3.20;;;8.00;99.90;;;;;;5002534;28;20219;-63
2023/10/16 06:49:26;;;;;;;4.53;2.87;;;8.20;99.90;;;;;;5002632;28;20199;-64
2023/10/16 06:51:56;;;;;;;5.17;3.40;;;8.90;99.90;;;;;;5005496;28;20274;-63
2023/10/16 06:54:24;;;;;;;4.73;2.60;;;9.80;99.90;;;;;;5004255;28;20207;-61
2023/10/16 06:56:51;;;;;;;4.67;2.80;;;10.60;99.90;;;;;;5002130;28;20220;-61
2023/10/16 06:59:17;;;;;;;3.43;2.37;;;11.30;99.90;;;;;;5002836;28;20230;-61
2023/10/16 07:01:46;;;;;;;4.37;2.73;;;12.10;99.90;;;;;;5005311;28;20219;-61
2023/10/16 07:04:14;;;;;;;5.80;2.63;;;12.80;99.90;;;;;;5005189;28;20199;-61
2023/10/16 07:06:43;;;;;;;5.90;2.43;;;13.70;99.90;;;;;;5001966;28;20705;-62
2023/10/16 07:09:12;;;;;;;4.40;2.33;;;14.20;99.90;;;;;;5002290;28;20204;-60
2023/10/16 07:11:42;;;;;;;4.33;2.83;;;14.30;99.90;;;;;;4993985;28;20274;-62
2023/10/16 07:14:12;;;;;;;5.07;3.07;;;14.10;99.90;;;;;;5001757;28;20343;-62
2023/10/16 07:16:40;;;;;;;3.80;2.60;;;13.60;99.90;;;;;;4993959;28;20287;-61
2023/10/16 07:19:08;;;;;;;6.20;3.30;;;12.70;99.90;;;;;;5001812;28;20203;-62
2023/10/16 07:21:35;;;;;;;6.37;3.13;;;11.80;99.90;;;;;;5004443;28;20234;-62
2023/10/16 07:24:03;;;;;;;7.53;3.73;;;11.00;99.90;;;;;;5005138;28;20632;-63
2023/10/16 07:26:34;;;;;;;4.93;3.50;;;10.40;99.90;;;;;;5002490;28;20250;-62
2023/10/16 07:29:01;;;;;;;6.87;3.50;;;9.90;99.90;;;;;;5000777;28;20215;-62
2023/10/16 07:31:28;;;;;;;4.60;3.13;;;9.50;99.90;;;;;;5003482;28;20227;-63
2023/10/16 07:33:59;;;;;;;4.43;3.60;;;8.60;99.90;;;;;;5005217;28;20210;-64
2023/10/16 07:36:27;;;;;;;5.37;3.23;;;7.90;99.90;;;;;;5003182;28;20246;-63
2023/10/16 07:38:54;;;;;;;5.83;3.10;;;7.40;99.90;;;;;;5001764;28;20235;-61
2023/10/16 07:41:23;;;;;;;4.53;2.97;;;7.10;99.90;;;;;;5002588;28;20221;-65
2023/10/16 07:43:56;;;;;;;4.13;2.70;;;7.10;99.90;;;;;;5004890;28;20290;-66
2023/10/16 07:46:30;;;;;;;4.20;2.90;;;7.20;99.90;;;;;;5003522;28;20273;-63
2023/10/16 07:49:01;;;;;;;6.13;3.17;;;7.30;99.90;;;;;;5001227;28;20285;-61
2023/10/16 07:51:28;;;;;;;4.07;2.90;;;7.40;99.90;;;;;;5003018;28;20319;-60
2023/10/16 07:53:56;;;;;;;4.20;2.80;;;7.50;99.90;;;;;;5004579;28;20215;-61
2023/10/16 07:56:28;;;;;;;5.30;2.90;;;7.60;99.90;;;;;;5003090;28;20249;-60
2023/10/16 07:59:06;;;;;;;6.00;2.87;;;7.70;99.90;;;;;;5001172;28;20203;-61
2023/10/16 08:01:41;;;;;;;4.60;3.00;;;7.90;99.90;;;;;;5003709;28;20314;-60
2023/10/16 08:04:19;;;;;;;4.80;2.93;;;8.00;99.90;;;;;;5004706;28;20234;-60
2023/10/16 08:06:46;;;;;;;4.93;3.07;;;7.70;99.90;;;;;;4994144;28;20215;-62
2023/10/16 08:12:18;;;;;;;4.40;2.63;;;7.90;99.90;;;;;;4997123;28;20222;-62
2023/10/16 08:14:51;;;;;;;4.97;2.73;;;8.10;99.90;;;;;;4993952;28;20278;-61
2023/10/16 08:17:17;;;;;;;3.80;2.97;;;8.10;99.90;;;;;;5001111;28;20584;-62
2023/10/16 08:19:49;;;;;;;7.20;2.97;;;8.00;99.90;;;;;;5004134;28;20669;-61
2023/10/16 08:22:16;;;;;;;4.33;2.87;;;8.10;99.90;;;;;;5003802;28;20235;-60
2023/10/16 08:24:57;;;;;;;4.23;3.10;;;8.20;99.90;;;;;;5000728;28;20291;-60
2023/10/16 08:27:40;;;;;;;4.40;3.40;;;8.40;99.90;;;;;;5001626;28;20689;-61
2023/10/16 08:30:18;;;;;;;3.43;2.63;;;8.60;99.90;;;;;;5004114;28;20203;-60
2023/10/16 08:32:53;;;;;;;6.03;2.97;;;8.90;99.90;;;;;;4993349;28;20267;-61
2023/10/16 08:35:20;;;;;;;5.37;3.13;;;9.20;99.90;;;;;;5001203;28;20235;-60
2023/10/16 08:37:55;;;;;;;4.90;3.13;;;9.30;99.90;;;;;;5003961;28;20206;-61
2023/10/16 08:40:24;;;;;;;4.33;2.67;;;9.40;99.90;;;;;;5002851;28;20284;-61
2023/10/16 08:43:00;;;;;;;4.73;2.87;;;9.50;99.90;;;;;;5000897;28;20603;-61
2023/10/16 08:45:29;;;;;;;6.17;2.77;;;9.80;99.90;;;;;;5001917;28;20235;-61
2023/10/16 08:47:57;;;;;;;2.80;2.40;;;10.10;99.90;;;;;;5003835;28;20289;-61
2023/10/16 08:50:40;;;;;;;4.97;3.00;;;10.30;99.90;;;;;;5002117;28;20673;-61
2023/10/16 08:53:09;;;;;;;3.43;2.33;;;10.30;99.90;;;;;;5000403;28;20215;-60
2023/10/16 08:55:36;;;;;;;4.47;3.00;;;10.40;99.90;;;;;;5002943;28;20685;-61
2023/10/16 08:58:05;;;;;;;5.30;2.70;;;10.50;99.90;;;;;;5003873;28;20213;-61
2023/10/16 09:00:33;;;;;;;3.77;2.60;;;10.60;99.90;;;;;;5001173;28;20217;-62
2023/10/16 09:03:04;;;;;;;4.87;2.87;;;10.70;99.90;;;;;;5000130;28;20670;-61
2023/10/16 09:05:31;;;;;;;5.50;2.73;;;10.90;99.90;;;;;;5002276;28;20269;-60
2023/10/16 09:07:58;;;;;;;4.07;2.70;;;11.00;99.90;;;;;;5003503;28;20207;-61
2023/10/16 09:10:30;;;;;;;2.90;2.60;;;11.20;99.90;;;;;;5001807;28;20235;-60
2023/10/16 09:13:13;;;;;;;3.50;2.60;;;11.10;99.90;;;;;;4999883;28;20295;-61
2023/10/16 09:15:45;;;;;;;4.60;3.03;;;10.70;99.90;;;;;;5002992;28;20293;-62
2023/10/16 09:18:13;;;;;;;3.47;2.67;;;10.80;99.90;;;;;;5003410;28;20291;-61
2023/10/16 09:20:42;;;;;;;3.83;2.67;;;10.90;99.90;;;;;;4999686;28;20218;-61
2023/10/16 09:23:13;;;;;;;2.73;2.47;;;10.80;99.90;;;;;;5000250;28;20294;-61
2023/10/16 09:25:43;;;;;;;5.80;2.60;;;10.70;99.90;;;;;;5003009;28;20672;-62
2023/10/16 09:28:16;;;;;;;3.93;3.20;;;10.80;99.90;;;;;;5003211;28;20231;-61
2023/10/16 09:30:46;;;;;;;3.87;2.67;;;11.00;99.90;;;;;;4991839;28;20603;-61
2023/10/16 09:33:14;;;;;;;5.10;2.80;;;11.30;99.90;;;;;;4999658;28;20222;-61
2023/10/16 09:35:44;;;;;;;3.53;2.43;;;11.40;99.90;;;;;;5002957;28;20207;-61
2023/10/16 09:38:17;;;;;;;3.43;2.60;;;11.50;99.90;;;;;;5003165;28;20234;-60
2023/10/16 09:40:45;;;;;;;3.73;2.40;;;11.80;99.90;;;;;;4991886;28;20207;-61
2023/10/16 09:43:24;;;;;;;3.60;2.50;;;11.70;99.90;;;;;;4999736;28;20203;-61
2023/10/16 09:46:21;;;;;;;3.67;2.57;;;11.70;99.90;;;;;;4992583;28;20212;-61
2023/10/16 09:48:47;;;;;;;4.97;2.60;;;11.70;99.90;;;;;;4991198;28;20588;-61
2023/10/16 09:51:14;;;;;;;3.97;2.50;;;11.70;99.90;;;;;;5001378;28;20662;-60
2023/10/16 09:53:41;;;;;;;2.47;1.90;;;11.70;99.90;;;;;;5007030;28;20199;-60
2023/10/16 09:56:12;;;;;;;3.93;2.37;;;11.90;99.90;;;;;;5006790;28;20277;-60
2023/10/16 09:58:44;;;;;;;3.67;2.40;;;12.00;99.90;;;;;;5003581;28;20207;-60
2023/10/16 10:01:23;;;;;;;2.43;2.10;;;11.90;99.90;;;;;;5003163;28;20254;-61
2023/10/16 10:03:50;;;;;;;2.90;2.23;;;11.90;99.90;;;;;;4996181;28;20219;-60
2023/10/16 10:06:21;;;;;;;3.67;2.10;;;11.70;99.90;;;;;;5003248;28;20238;-60
2023/10/16 10:09:20;;;;;;;3.53;2.50;;;11.80;99.90;;;;;;4995687;28;20697;-62
2023/10/16 10:12:04;;;;;;;2.70;2.20;;;12.00;99.90;;;;;;5001111;28;20223;-63
2023/10/16 10:14:39;;;;;;;2.70;2.20;;;12.30;99.90;;;;;;5004282;28;20210;-60
2023/10/16 10:17:10;;;;;;;2.93;2.10;;;12.40;99.90;;;;;;5002738;28;20218;-62
2023/10/16 10:19:40;;;;;;;2.73;2.10;;;12.10;99.90;;;;;;5005309;28;20295;-61
2023/10/16 10:22:16;;;;;;;2.13;1.80;;;12.10;99.90;;;;;;5006032;28;20261;-60
2023/10/16 10:24:48;;;;;;;2.93;1.90;;;12.10;99.90;;;;;;4986089;28;20257;-60
2023/10/16 10:27:16;;;;;;;1.90;1.70;;;12.20;99.90;;;;;;4989892;28;20294;-60
2023/10/16 10:29:47;;;;;;;2.17;1.90;;;12.40;99.90;;;;;;4986406;28;20216;-61
2023/10/16 10:32:15;;;;;;;2.70;1.50;;;12.60;99.90;;;;;;4993960;28;20236;-60
2023/10/16 10:34:43;;;;;;;3.43;1.30;;;12.80;99.90;;;;;;4994056;28;20583;-61
2023/10/16 10:37:45;;;;;;;2.43;1.43;;;12.80;99.90;;;;;;4994582;28;20243;-60
2023/10/16 10:40:15;;;;;;;1.27;1.00;;;12.80;99.90;;;;;;4990058;28;20685;-60
2023/10/16 10:42:42;;;;;;;4.33;1.13;;;13.00;99.90;;;;;;4993897;28;20259;-61
2023/10/16 10:45:21;;;;;;;2.07;1.70;;;13.00;99.90;;;;;;4993038;28;20227;-61
2023/10/16 10:47:54;;;;;;;1.37;1.13;;;13.10;99.90;;;;;;4986312;28;20254;-60
2023/10/16 10:50:21;;;;;;;1.90;1.30;;;13.10;99.90;;;;;;4993790;28;20211;-60
2023/10/16 10:52:48;;;;;;;3.07;1.70;;;13.30;99.90;;;;;;4994292;28;20634;-61
2023/10/16 10:55:21;;;;;;;2.13;1.30;;;13.30;99.90;;;;;;4994163;28;20211;-61
2023/10/16 10:57:55;;;;;;;3.00;1.80;;;13.30;99.90;;;;;;4993884;28;20522;-62
2023/10/16 11:00:43;;;;;;;1.67;1.20;;;13.40;99.90;;;;;;4993651;28;20717;-60
2023/10/16 11:03:22;;;;;;;2.97;1.27;;;13.50;99.90;;;;;;4992822;28;20207;-60
2023/10/16 11:05:50;;;;;;;2.17;1.40;;;13.50;99.90;;;;;;4994011;28;20307;-58
2023/10/16 11:08:27;;;;;;;10.77;1.50;;;13.60;99.90;;;;;;4993786;28;20231;-59
2023/10/16 11:10:55;;;;;;;1.20;1.10;;;13.70;99.90;;;;;;4995396;28;20223;-61
2023/10/16 11:13:26;;;;;;;2.00;1.27;;;13.70;99.90;;;;;;5002121;28;20662;-59
2023/10/16 11:15:54;;;;;;;2.57;1.20;;;13.70;99.90;;;;;;5002021;28;20203;-59
2023/10/16 11:18:26;;;;;;;2.37;1.17;;;13.70;99.90;;;;;;5001539;28;20199;-59
2023/10/16 11:20:54;;;;;;;1.57;1.27;;;13.60;99.90;;;;;;5005556;28;20238;-59
2023/10/16 11:23:25;;;;;;;1.20;0.97;;;13.60;99.90;;;;;;5006295;28;20205;-60
2023/10/16 11:25:52;;;;;;;2.60;1.10;;;13.60;99.90;;;;;;5002093;28;20584;-60
2023/10/16 11:28:21;;;;;;;2.93;1.00;;;13.70;99.90;;;;;;5001399;28;20227;-59
2023/10/16 11:30:49;;;;;;;1.53;1.00;;;13.70;99.90;;;;;;4993905;28;20200;-60
2023/10/16 11:33:34;;;;;;;1.63;1.07;;;13.70;99.90;;;;;;5001751;28;20304;-61
2023/10/16 11:36:03;;;;;;;1.90;1.00;;;13.80;99.90;;;;;;4996192;28;20265;-61
2023/10/16 11:38:31;;;;;;;2.40;1.00;;;13.90;99.90;;;;;;5003123;28;20208;-61
2023/10/16 11:41:04;;;;;;;3.13;1.00;;;13.90;99.90;;;;;;5005421;28;20310;-62
2023/10/16 11:43:32;;;;;;;1.50;1.00;;;14.00;99.90;;;;;;5003381;28;20211;-60
2023/10/16 11:46:05;;;;;;;3.00;1.17;;;14.00;99.90;;;;;;5001597;28;20207;-60
2023/10/16 11:48:43;;;;;;;3.23;1.50;;;14.00;99.90;;;;;;5002986;28;20255;-60
2023/10/16 11:51:16;;;;;;;2.13;1.10;;;14.10;99.90;;;;;;5005100;28;20323;-59
2023/10/16 11:53:44;;;;;;;1.90;1.20;;;14.00;99.90;;;;;;5001598;28;20255;-59
2023/10/16 11:56:13;;;;;;;2.20;1.30;;;14.00;99.90;;;;;;5001585;28;20219;-60
2023/10/16 11:58:40;;;;;;;2.50;1.13;;;14.00;99.90;;;;;;5001522;28;20259;-59
2023/10/16 12:01:09;;;;;;;3.17;0.90;;;14.10;99.90;;;;;;5001281;28;20257;-59
2023/10/16 12:03:38;;;;;;;3.20;1.10;;;14.20;99.90;;;;;;5003411;28;20301;-59
2023/10/16 12:06:10;;;;;;;1.80;1.03;;;14.30;99.90;;;;;;5006836;28;20200;-59
2023/10/16 12:08:37;;;;;;;2.33;1.50;;;14.40;99.90;;;;;;4993003;28;20267;-59
2023/10/16 12:11:05;;;;;;;1.63;1.13;;;14.60;99.90;;;;;;4993610;28;20713;-60
2023/10/16 12:13:31;;;;;;;2.50;1.90;;;14.80;99.90;;;;;;4992802;28;20233;-60
2023/10/16 12:15:58;;;;;;;2.23;1.10;;;14.90;99.90;;;;;;4993014;28;20654;-59
2023/10/16 12:18:28;;;;;;;2.00;1.60;;;14.80;99.90;;;;;;4992680;28;20211;-59
2023/10/16 12:21:04;;;;;;;8.57;2.27;;;14.80;99.90;;;;;;4992550;28;20243;-59
2023/10/16 12:23:32;;;;;;;2.33;1.43;;;14.70;99.90;;;;;;4993061;28;20211;-59
2023/10/16 12:26:00;;;;;;;2.10;0.97;;;14.70;99.60;;;;;;4993097;28;20208;-60
2023/10/16 12:28:27;;;;;;;1.40;1.10;;;14.80;99.70;;;;;;4992577;28;20728;-60
2023/10/16 12:30:57;;;;;;;1.50;1.00;;;14.80;99.30;;;;;;4992647;28;20224;-60
2023/10/16 12:33:25;;;;;;;2.07;1.10;;;14.80;99.10;;;;;;4992804;28;20235;-60
2023/10/16 12:35:54;;;;;;;2.20;1.30;;;14.80;98.90;;;;;;4993143;28;20207;-61
2023/10/16 12:38:24;;;;;;;1.17;1.07;;;14.80;97.40;;;;;;4992377;28;20646;-61
2023/10/16 12:40:55;;;;;;;2.07;1.63;;;14.80;97.00;;;;;;4992606;28;20269;-59
2023/10/16 12:43:25;;;;;;;2.47;1.60;;;14.70;98.30;;;;;;4992976;28;20303;-61
2023/10/16 12:45:52;;;;;;;3.30;1.43;;;14.80;98.90;;;;;;4992230;28;20215;-61
2023/10/16 12:48:18;;;;;;;2.30;1.67;;;14.90;98.50;;;;;;4992504;28;20716;-59
2023/10/16 12:50:47;;;;;;;1.30;1.20;;;15.00;98.70;;;;;;4992252;28;20215;-60
2023/10/16 12:53:15;;;;;;;1.77;1.10;;;15.20;97.90;;;;;;4992288;28;20212;-60
2023/10/16 12:55:48;;;;;;;1.48;1.20;;;15.30;97.50;;;;;;4992577;28;20242;-61
2023/10/16 12:58:18;;;;;;;1.90;1.10;;;15.30;97.60;;;;;;4992243;28;20211;-60
2023/10/16 13:00:46;;;;;;;1.30;1.20;;;15.30;96.70;;;;;;4992205;28;20218;-60
2023/10/16 13:03:14;;;;;;;2.05;1.27;;;15.20;96.20;;;;;;4992467;28;20204;-60
2023/10/16 13:05:42;;;;;;;1.92;1.38;;;15.20;96.80;;;;;;4992265;28;20211;-59
2023/10/16 13:08:09;;;;;;;2.10;1.43;;;15.10;97.50;;;;;;4992304;28;20230;-60
2023/10/16 13:10:37;;;;;;;2.47;1.38;;;15.00;97.80;;;;;;4991929;28;20207;-61
2023/10/16 13:13:05;;;;;;;1.70;1.37;;;14.90;98.10;;;;;;4992064;28;20215;-61
2023/10/16 13:15:32;;;;;;;2.55;1.38;;;15.00;98.40;;;;;;4991967;28;20265;-60
2023/10/16 13:18:00;;;;;;;2.78;1.50;;;15.10;98.50;;;;;;4991665;28;20701;-60
2023/10/16 13:20:28;;;;;;;4.88;1.38;;;15.00;98.50;;;;;;4991800;28;20705;-60
2023/10/16 13:22:55;;;;;;;1.73;1.30;;;15.00;98.40;;;;;;4992073;28;20246;-60
2023/10/16 13:25:23;;;;;;;3.80;1.40;;;14.80;98.60;;;;;;4991612;28;20204;-60
2023/10/16 13:27:51;;;;;;;2.70;1.70;;;14.80;98.60;;;;;;4991791;28;20254;-60
2023/10/16 13:30:22;;;;;;;2.00;1.80;;;14.60;98.20;;;;;;4991860;28;20214;-60
2023/10/16 13:32:50;;;;;;;2.63;1.30;;;14.50;97.90;;;;;;4991675;28;20227;-60
2023/10/16 13:35:18;;;;;;;2.83;1.53;;;14.50;97.60;;;;;;4992030;28;20234;-60
2023/10/16 13:37:46;;;;;;;2.37;1.20;;;14.60;97.00;;;;;;4992027;28;20726;-60
2023/10/16 13:40:20;;;;;;;3.70;1.43;;;14.60;96.60;;;;;;4991344;28;20207;-60
2023/10/16 13:42:48;;;;;;;1.67;1.13;;;14.70;97.10;;;;;;4991670;28;20227;-60
2023/10/16 13:45:16;;;;;;;2.33;1.20;;;14.90;97.30;;;;;;4991814;28;20253;-61
2023/10/16 13:47:44;;;;;;;2.53;1.10;;;15.00;97.20;;;;;;4991595;28;20306;-60
2023/10/16 13:50:13;;;;;;;3.93;1.30;;;15.00;97.20;;;;;;4991395;28;20218;-65
2023/10/16 13:52:40;;;;;;;2.43;1.10;;;14.90;97.50;;;;;;4991499;28;20255;-60
2023/10/16 13:55:12;;;;;;;2.60;1.00;;;14.90;96.60;;;;;;4991722;28;20254;-61
2023/10/16 13:57:42;;;;;;;2.67;2.00;;;15.00;96.50;;;;;;4991373;28;20207;-60
2023/10/16 14:00:11;;;;;;;1.70;1.40;;;15.00;96.40;;;;;;4991406;28;20809;-61
2023/10/16 14:02:38;;;;;;;5.40;1.50;;;15.00;95.90;;;;;;4991558;28;20258;-61
2023/10/16 14:05:07;;;;;;;2.22;1.20;;;15.00;95.10;;;;;;4991378;28;20334;-61
2023/10/16 14:07:33;;;;;;;1.10;1.00;;;15.00;95.10;;;;;;4991548;28;20603;-60
2023/10/16 14:10:02;;;;;;;1.25;1.02;;;14.80;95.20;;;;;;4991654;28;20289;-60
2023/10/16 14:12:37;;;;;;;1.35;1.00;;;14.80;95.40;;;;;;4991869;28;20231;-60
2023/10/16 14:15:04;;;;;;;2.50;1.40;;;14.70;95.60;;;;;;4991518;28;20207;-60
2023/10/16 14:17:37;;;;;;;2.07;1.00;;;14.80;95.30;;;;;;4991044;28;20204;-60
2023/10/16 14:20:11;;;;;;;3.90;1.58;;;14.90;95.40;;;;;;4991262;28;20246;-62
2023/10/16 14:22:42;;;;;;;2.07;1.20;;;15.00;95.20;;;;;;4991038;28;20274;-61
2023/10/16 14:25:11;;;;;;;3.03;2.17;;;15.00;94.20;;;;;;4991065;28;20214;-61